sensor_id;sensor_type;location;lat;lon;timestamp;pressure;altitude;pressure_sealevel;temperature;humidity
46682;BME280;34101;53.430;-2.224;2024-02-15T00:00:06;100345.91;;;13.34;88.47
46682;BME280;34101;53.430;-2.224;2024-02-15T00:02:33;100341.80;;;13.35;88.28
46682;BME280;34101;53.430;-2.224;2024-02-15T00:05:01;100342.19;;;13.33;88.34
46682;BME280;34101;53.430;-2.224;2024-02-15T00:07:29;100344.92;;;13.44;88.17
46682;BME280;34101;53.430;-2.224;2024-02-15T00:09:57;100342.53;;;13.43;87.64
46682;BME280;34101;53.430;-2.224;2024-02-15T00:12:24;100336.49;;;13.51;88.00
46682;BME280;34101;53.430;-2.224;2024-02-15T00:14:51;100333.05;;;13.54;87.93
46682;BME280;34101;53.430;-2.224;2024-02-15T00:17:19;100333.42;;;13.57;87.78
46682;BME280;34101;53.430;-2.224;2024-02-15T00:19:46;100328.93;;;13.22;87.74
46682;BME280;34101;53.430;-2.224;2024-02-15T00:22:13;100327.36;;;13.36;88.71
46682;BME280;34101;53.430;-2.224;2024-02-15T00:24:41;100329.40;;;13.54;87.70
46682;BME280;34101;53.430;-2.224;2024-02-15T00:27:09;100326.71;;;13.34;88.16
46682;BME280;34101;53.430;-2.224;2024-02-15T00:29:37;100329.67;;;13.48;88.02
46682;BME280;34101;53.430;-2.224;2024-02-15T00:32:04;100325.10;;;13.60;86.97
46682;BME280;34101;53.430;-2.224;2024-02-15T00:34:32;100323.91;;;13.54;87.33
46682;BME280;34101;53.430;-2.224;2024-02-15T00:37:00;100328.15;;;13.44;87.07
46682;BME280;34101;53.430;-2.224;2024-02-15T00:39:27;100324.17;;;13.42;88.26
46682;BME280;34101;53.430;-2.224;2024-02-15T00:41:55;100322.16;;;13.49;87.71
46682;BME280;34101;53.430;-2.224;2024-02-15T00:44:22;100321.17;;;13.51;87.78
46682;BME280;34101;53.430;-2.224;2024-02-15T00:46:50;100329.27;;;13.37;87.85
46682;BME280;34101;53.430;-2.224;2024-02-15T00:49:17;100334.91;;;13.50;87.93
46682;BME280;34101;53.430;-2.224;2024-02-15T00:51:45;100333.10;;;13.54;87.81
46682;BME280;34101;53.430;-2.224;2024-02-15T00:54:12;100339.02;;;13.42;87.59
46682;BME280;34101;53.430;-2.224;2024-02-15T00:56:40;100335.35;;;13.29;87.75
46682;BME280;34101;53.430;-2.224;2024-02-15T00:59:08;100338.95;;;13.37;88.24
46682;BME280;34101;53.430;-2.224;2024-02-15T01:01:35;100342.64;;;13.44;88.16
46682;BME280;34101;53.430;-2.224;2024-02-15T01:04:03;100336.65;;;13.29;88.74
46682;BME280;34101;53.430;-2.224;2024-02-15T01:06:30;100339.20;;;13.38;88.50
46682;BME280;34101;53.430;-2.224;2024-02-15T01:08:58;100343.47;;;13.33;88.62
46682;BME280;34101;53.430;-2.224;2024-02-15T01:11:26;100340.41;;;13.45;87.79
46682;BME280;34101;53.430;-2.224;2024-02-15T01:13:54;100347.92;;;13.41;88.37
46682;BME280;34101;53.430;-2.224;2024-02-15T01:16:23;100343.34;;;13.49;88.23
46682;BME280;34101;53.430;-2.224;2024-02-15T01:18:50;100343.76;;;13.44;88.25
46682;BME280;34101;53.430;-2.224;2024-02-15T01:21:18;100342.73;;;13.39;88.48
46682;BME280;34101;53.430;-2.224;2024-02-15T01:23:45;100334.91;;;13.36;88.57
46682;BME280;34101;53.430;-2.224;2024-02-15T01:26:13;100332.68;;;13.22;88.71
46682;BME280;34101;53.430;-2.224;2024-02-15T01:28:40;100332.64;;;13.16;89.33
46682;BME280;34101;53.430;-2.224;2024-02-15T01:31:08;100330.62;;;13.16;89.69
46682;BME280;34101;53.430;-2.224;2024-02-15T01:33:35;100328.79;;;13.26;89.53
46682;BME280;34101;53.430;-2.224;2024-02-15T01:36:03;100332.06;;;13.12;89.79
46682;BME280;34101;53.430;-2.224;2024-02-15T01:38:31;100330.39;;;13.31;89.23
46682;BME280;34101;53.430;-2.224;2024-02-15T01:40:59;100333.33;;;13.18;89.50
46682;BME280;34101;53.430;-2.224;2024-02-15T01:43:27;100329.61;;;12.91;91.17
46682;BME280;34101;53.430;-2.224;2024-02-15T01:45:55;100326.35;;;12.93;90.86
46682;BME280;34101;53.430;-2.224;2024-02-15T01:48:23;100327.66;;;13.07;90.86
46682;BME280;34101;53.430;-2.224;2024-02-15T01:50:51;100334.25;;;13.13;90.26
46682;BME280;34101;53.430;-2.224;2024-02-15T01:53:19;100327.11;;;13.02;91.40
46682;BME280;34101;53.430;-2.224;2024-02-15T01:55:48;100328.80;;;13.35;90.14
46682;BME280;34101;53.430;-2.224;2024-02-15T01:58:16;100326.42;;;13.38;89.62
46682;BME280;34101;53.430;-2.224;2024-02-15T02:00:44;100325.36;;;13.28;90.37
46682;BME280;34101;53.430;-2.224;2024-02-15T02:03:14;100324.45;;;13.39;89.68
46682;BME280;34101;53.430;-2.224;2024-02-15T02:05:42;100322.84;;;13.27;89.50
46682;BME280;34101;53.430;-2.224;2024-02-15T02:08:10;100319.42;;;13.31;89.38
46682;BME280;34101;53.430;-2.224;2024-02-15T02:10:38;100324.19;;;13.41;89.57
46682;BME280;34101;53.430;-2.224;2024-02-15T02:13:06;100315.64;;;13.31;90.21
46682;BME280;34101;53.430;-2.224;2024-02-15T02:15:34;100307.62;;;13.20;90.94
46682;BME280;34101;53.430;-2.224;2024-02-15T02:18:02;100309.81;;;13.35;89.88
46682;BME280;34101;53.430;-2.224;2024-02-15T02:20:30;100311.17;;;13.39;90.26
46682;BME280;34101;53.430;-2.224;2024-02-15T02:23:05;100304.80;;;13.33;89.83
46682;BME280;34101;53.430;-2.224;2024-02-15T02:25:34;100294.82;;;13.49;89.56
46682;BME280;34101;53.430;-2.224;2024-02-15T02:28:02;100292.46;;;13.61;89.09
46682;BME280;34101;53.430;-2.224;2024-02-15T02:30:30;100292.38;;;13.66;88.82
46682;BME280;34101;53.430;-2.224;2024-02-15T02:32:57;100286.27;;;13.67;88.80
46682;BME280;34101;53.430;-2.224;2024-02-15T02:35:24;100288.60;;;13.44;88.63
46682;BME280;34101;53.430;-2.224;2024-02-15T02:37:52;100281.54;;;13.64;88.70
46682;BME280;34101;53.430;-2.224;2024-02-15T02:40:19;100278.09;;;13.47;88.66
46682;BME280;34101;53.430;-2.224;2024-02-15T02:42:49;100274.34;;;13.60;88.19
46682;BME280;34101;53.430;-2.224;2024-02-15T02:45:18;100273.61;;;13.61;88.67
46682;BME280;34101;53.430;-2.224;2024-02-15T02:47:46;100267.73;;;13.69;88.37
46682;BME280;34101;53.430;-2.224;2024-02-15T02:50:15;100262.27;;;13.55;88.71
46682;BME280;34101;53.430;-2.224;2024-02-15T02:52:43;100265.44;;;13.64;88.34
46682;BME280;34101;53.430;-2.224;2024-02-15T02:55:11;100263.65;;;13.71;87.43
46682;BME280;34101;53.430;-2.224;2024-02-15T02:57:39;100261.87;;;13.47;88.09
46682;BME280;34101;53.430;-2.224;2024-02-15T03:00:09;100261.50;;;13.65;88.07
46682;BME280;34101;53.430;-2.224;2024-02-15T03:02:37;100259.64;;;13.67;87.43
46682;BME280;34101;53.430;-2.224;2024-02-15T03:05:06;100259.04;;;13.54;87.72
46682;BME280;34101;53.430;-2.224;2024-02-15T03:07:34;100251.35;;;13.53;88.38
46682;BME280;34101;53.430;-2.224;2024-02-15T03:10:03;100243.44;;;13.71;87.77
46682;BME280;34101;53.430;-2.224;2024-02-15T03:12:30;100242.83;;;13.74;87.46
46682;BME280;34101;53.430;-2.224;2024-02-15T03:14:58;100243.37;;;13.70;87.37
46682;BME280;34101;53.430;-2.224;2024-02-15T03:17:31;100246.83;;;13.74;87.16
46682;BME280;34101;53.430;-2.224;2024-02-15T03:19:59;100247.73;;;13.43;87.92
46682;BME280;34101;53.430;-2.224;2024-02-15T03:22:28;100250.57;;;13.34;89.09
46682;BME280;34101;53.430;-2.224;2024-02-15T03:24:56;100247.86;;;13.63;88.05
46682;BME280;34101;53.430;-2.224;2024-02-15T03:27:24;100250.63;;;13.57;87.64
46682;BME280;34101;53.430;-2.224;2024-02-15T03:29:52;100248.09;;;13.67;87.74
46682;BME280;34101;53.430;-2.224;2024-02-15T03:32:20;100243.81;;;13.78;86.76
46682;BME280;34101;53.430;-2.224;2024-02-15T03:34:47;100245.86;;;13.80;86.83
46682;BME280;34101;53.430;-2.224;2024-02-15T03:37:15;100244.84;;;13.87;86.88
46682;BME280;34101;53.430;-2.224;2024-02-15T03:39:43;100243.65;;;13.82;86.64
46682;BME280;34101;53.430;-2.224;2024-02-15T03:42:11;100241.14;;;13.82;86.78
46682;BME280;34101;53.430;-2.224;2024-02-15T03:44:39;100242.95;;;13.84;86.45
46682;BME280;34101;53.430;-2.224;2024-02-15T03:47:06;100240.79;;;13.62;87.03
46682;BME280;34101;53.430;-2.224;2024-02-15T03:49:34;100241.25;;;13.49;87.67
46682;BME280;34101;53.430;-2.224;2024-02-15T03:52:01;100243.72;;;13.53;88.01
46682;BME280;34101;53.430;-2.224;2024-02-15T03:54:29;100237.89;;;13.29;88.64
46682;BME280;34101;53.430;-2.224;2024-02-15T03:56:56;100236.41;;;13.47;88.45
46682;BME280;34101;53.430;-2.224;2024-02-15T03:59:23;100230.63;;;13.51;88.32
46682;BME280;34101;53.430;-2.224;2024-02-15T04:01:51;100226.09;;;13.50;88.36
46682;BME280;34101;53.430;-2.224;2024-02-15T04:04:19;100228.10;;;13.49;88.46
46682;BME280;34101;53.430;-2.224;2024-02-15T04:06:52;100223.30;;;13.57;88.47
46682;BME280;34101;53.430;-2.224;2024-02-15T04:09:19;100228.27;;;13.54;88.64
46682;BME280;34101;53.430;-2.224;2024-02-15T04:11:47;100223.65;;;13.47;89.16
46682;BME280;34101;53.430;-2.224;2024-02-15T04:14:15;100223.14;;;13.49;89.34
46682;BME280;34101;53.430;-2.224;2024-02-15T04:16:42;100211.42;;;13.50;89.45
46682;BME280;34101;53.430;-2.224;2024-02-15T04:19:10;100220.87;;;13.55;89.65
46682;BME280;34101;53.430;-2.224;2024-02-15T04:21:38;100216.00;;;13.55;89.74
46682;BME280;34101;53.430;-2.224;2024-02-15T04:24:05;100218.52;;;13.39;89.92
46682;BME280;34101;53.430;-2.224;2024-02-15T04:26:34;100209.03;;;13.50;89.76
46682;BME280;34101;53.430;-2.224;2024-02-15T04:29:01;100205.98;;;13.57;89.61
46682;BME280;34101;53.430;-2.224;2024-02-15T04:31:29;100207.29;;;13.60;89.43
46682;BME280;34101;53.430;-2.224;2024-02-15T04:33:56;100198.19;;;13.64;89.29
46682;BME280;34101;53.430;-2.224;2024-02-15T04:36:24;100202.16;;;13.62;89.21
46682;BME280;34101;53.430;-2.224;2024-02-15T04:38:52;100200.31;;;13.71;89.08
46682;BME280;34101;53.430;-2.224;2024-02-15T04:41:19;100199.70;;;13.76;89.02
46682;BME280;34101;53.430;-2.224;2024-02-15T04:43:47;100195.66;;;13.78;88.81
46682;BME280;34101;53.430;-2.224;2024-02-15T04:46:15;100195.39;;;13.70;88.77
46682;BME280;34101;53.430;-2.224;2024-02-15T04:48:42;100179.96;;;13.78;88.53
46682;BME280;34101;53.430;-2.224;2024-02-15T04:51:10;100180.06;;;13.82;88.41
46682;BME280;34101;53.430;-2.224;2024-02-15T04:53:37;100177.72;;;13.81;88.30
46682;BME280;34101;53.430;-2.224;2024-02-15T04:56:05;100179.56;;;13.83;87.91
46682;BME280;34101;53.430;-2.224;2024-02-15T04:58:33;100177.08;;;13.71;88.21
46682;BME280;34101;53.430;-2.224;2024-02-15T05:01:01;100167.55;;;13.82;87.90
46682;BME280;34101;53.430;-2.224;2024-02-15T05:03:28;100167.34;;;13.84;87.75
46682;BME280;34101;53.430;-2.224;2024-02-15T05:05:56;100168.04;;;13.87;87.68
46682;BME280;34101;53.430;-2.224;2024-02-15T05:08:23;100165.24;;;13.91;87.57
46682;BME280;34101;53.430;-2.224;2024-02-15T05:10:50;100161.79;;;13.92;87.58
46682;BME280;34101;53.430;-2.224;2024-02-15T05:13:18;100157.09;;;13.91;87.39
46682;BME280;34101;53.430;-2.224;2024-02-15T05:15:45;100158.83;;;13.94;87.27
46682;BME280;34101;53.430;-2.224;2024-02-15T05:18:13;100162.10;;;13.95;87.11
46682;BME280;34101;53.430;-2.224;2024-02-15T05:20:41;100155.12;;;13.91;86.90
46682;BME280;34101;53.430;-2.224;2024-02-15T05:23:09;100137.31;;;13.94;87.06
46682;BME280;34101;53.430;-2.224;2024-02-15T05:25:37;100146.59;;;13.96;86.99
46682;BME280;34101;53.430;-2.224;2024-02-15T05:28:05;100151.96;;;13.96;87.02
46682;BME280;34101;53.430;-2.224;2024-02-15T05:30:33;100143.71;;;13.98;86.91
46682;BME280;34101;53.430;-2.224;2024-02-15T05:33:01;100143.24;;;14.00;86.72
46682;BME280;34101;53.430;-2.224;2024-02-15T05:35:28;100140.19;;;13.96;86.77
46682;BME280;34101;53.430;-2.224;2024-02-15T05:37:55;100139.60;;;13.93;86.44
46682;BME280;34101;53.430;-2.224;2024-02-15T05:40:23;100143.90;;;13.95;86.49
46682;BME280;34101;53.430;-2.224;2024-02-15T05:42:55;100144.88;;;13.97;86.37
46682;BME280;34101;53.430;-2.224;2024-02-15T05:45:31;100140.66;;;13.99;86.59
46682;BME280;34101;53.430;-2.224;2024-02-15T05:47:59;100142.25;;;13.90;86.43
46682;BME280;34101;53.430;-2.224;2024-02-15T05:50:27;100141.76;;;14.00;86.19
46682;BME280;34101;53.430;-2.224;2024-02-15T05:52:55;100142.18;;;14.02;86.00
46682;BME280;34101;53.430;-2.224;2024-02-15T05:55:23;100140.03;;;13.98;86.03
46682;BME280;34101;53.430;-2.224;2024-02-15T05:57:50;100151.79;;;13.87;85.58
46682;BME280;34101;53.430;-2.224;2024-02-15T06:00:18;100145.17;;;13.84;86.31
46682;BME280;34101;53.430;-2.224;2024-02-15T06:02:46;100134.78;;;13.89;86.42
46682;BME280;34101;53.430;-2.224;2024-02-15T06:05:14;100127.20;;;13.91;86.12
46682;BME280;34101;53.430;-2.224;2024-02-15T06:07:41;100120.27;;;13.93;86.07
46682;BME280;34101;53.430;-2.224;2024-02-15T06:10:10;100121.11;;;13.70;86.18
46682;BME280;34101;53.430;-2.224;2024-02-15T06:12:38;100121.14;;;13.71;86.84
46682;BME280;34101;53.430;-2.224;2024-02-15T06:15:06;100116.60;;;13.85;86.66
46682;BME280;34101;53.430;-2.224;2024-02-15T06:17:33;100122.59;;;13.95;86.12
46682;BME280;34101;53.430;-2.224;2024-02-15T06:20:01;100121.69;;;13.82;86.56
46682;BME280;34101;53.430;-2.224;2024-02-15T06:22:28;100124.81;;;13.93;86.25
46682;BME280;34101;53.430;-2.224;2024-02-15T06:24:55;100122.08;;;13.64;86.90
46682;BME280;34101;53.430;-2.224;2024-02-15T06:27:23;100120.07;;;13.50;87.13
46682;BME280;34101;53.430;-2.224;2024-02-15T06:29:50;100122.29;;;13.72;87.59
46682;BME280;34101;53.430;-2.224;2024-02-15T06:32:17;100116.27;;;13.62;87.37
46682;BME280;34101;53.430;-2.224;2024-02-15T06:34:45;100105.81;;;13.78;87.43
46682;BME280;34101;53.430;-2.224;2024-02-15T06:37:35;100093.79;;;13.92;86.69
46682;BME280;34101;53.430;-2.224;2024-02-15T06:40:05;100088.37;;;13.84;86.83
46682;BME280;34101;53.430;-2.224;2024-02-15T06:42:32;100089.33;;;13.73;87.42
46682;BME280;34101;53.430;-2.224;2024-02-15T06:44:59;100087.71;;;13.68;87.59
46682;BME280;34101;53.430;-2.224;2024-02-15T06:47:27;100087.10;;;13.83;86.87
46682;BME280;34101;53.430;-2.224;2024-02-15T06:49:55;100088.18;;;13.75;86.90
46682;BME280;34101;53.430;-2.224;2024-02-15T06:52:23;100091.67;;;13.72;88.09
46682;BME280;34101;53.430;-2.224;2024-02-15T06:54:50;100091.25;;;13.79;86.87
46682;BME280;34101;53.430;-2.224;2024-02-15T06:57:17;100091.37;;;13.70;88.25
46682;BME280;34101;53.430;-2.224;2024-02-15T06:59:46;100094.92;;;13.90;87.13
46682;BME280;34101;53.430;-2.224;2024-02-15T07:02:14;100093.61;;;13.76;88.18
46682;BME280;34101;53.430;-2.224;2024-02-15T07:04:41;100087.32;;;13.82;87.31
46682;BME280;34101;53.430;-2.224;2024-02-15T07:07:11;100090.93;;;13.71;87.66
46682;BME280;34101;53.430;-2.224;2024-02-15T07:09:40;100081.80;;;13.91;87.38
46682;BME280;34101;53.430;-2.224;2024-02-15T07:12:08;100087.53;;;14.05;86.88
46682;BME280;34101;53.430;-2.224;2024-02-15T07:14:36;100083.32;;;13.90;87.48
46682;BME280;34101;53.430;-2.224;2024-02-15T07:17:03;100083.66;;;13.78;87.62
46682;BME280;34101;53.430;-2.224;2024-02-15T07:19:30;100085.55;;;13.84;87.52
46682;BME280;34101;53.430;-2.224;2024-02-15T07:21:58;100085.61;;;13.98;87.19
46682;BME280;34101;53.430;-2.224;2024-02-15T07:24:25;100084.39;;;14.02;87.21
46682;BME280;34101;53.430;-2.224;2024-02-15T07:26:53;100088.39;;;13.87;87.33
46682;BME280;34101;53.430;-2.224;2024-02-15T07:29:21;100090.65;;;14.01;87.39
46682;BME280;34101;53.430;-2.224;2024-02-15T07:31:48;100092.37;;;14.05;87.38
46682;BME280;34101;53.430;-2.224;2024-02-15T07:34:15;100083.62;;;14.16;86.84
46682;BME280;34101;53.430;-2.224;2024-02-15T07:36:43;100087.66;;;14.17;86.55
46682;BME280;34101;53.430;-2.224;2024-02-15T07:39:10;100078.79;;;14.25;86.74
46682;BME280;34101;53.430;-2.224;2024-02-15T07:41:39;100088.11;;;14.04;86.56
46682;BME280;34101;53.430;-2.224;2024-02-15T07:44:06;100081.20;;;13.90;88.14
46682;BME280;34101;53.430;-2.224;2024-02-15T07:46:34;100074.84;;;14.11;87.46
46682;BME280;34101;53.430;-2.224;2024-02-15T07:49:03;100077.41;;;14.21;86.61
46682;BME280;34101;53.430;-2.224;2024-02-15T07:51:30;100077.46;;;14.19;87.31
46682;BME280;34101;53.430;-2.224;2024-02-15T07:53:59;100081.81;;;14.20;87.25
46682;BME280;34101;53.430;-2.224;2024-02-15T07:56:26;100077.60;;;14.17;87.13
46682;BME280;34101;53.430;-2.224;2024-02-15T07:58:54;100085.62;;;14.26;86.90
46682;BME280;34101;53.430;-2.224;2024-02-15T08:01:21;100086.68;;;14.30;86.44
46682;BME280;34101;53.430;-2.224;2024-02-15T08:03:49;100079.29;;;14.30;87.16
46682;BME280;34101;53.430;-2.224;2024-02-15T08:06:17;100074.56;;;14.35;86.93
46682;BME280;34101;53.430;-2.224;2024-02-15T08:08:46;100070.35;;;14.50;86.24
46682;BME280;34101;53.430;-2.224;2024-02-15T08:11:15;100078.45;;;14.43;86.47
46682;BME280;34101;53.430;-2.224;2024-02-15T08:13:46;100076.14;;;14.55;86.23
46682;BME280;34101;53.430;-2.224;2024-02-15T08:16:13;100069.64;;;14.46;85.83
46682;BME280;34101;53.430;-2.224;2024-02-15T08:18:40;100070.56;;;14.32;86.74
46682;BME280;34101;53.430;-2.224;2024-02-15T08:21:08;100071.11;;;14.32;86.77
46682;BME280;34101;53.430;-2.224;2024-02-15T08:23:36;100072.84;;;14.51;86.43
46682;BME280;34101;53.430;-2.224;2024-02-15T08:26:04;100074.05;;;14.58;86.22
46682;BME280;34101;53.430;-2.224;2024-02-15T08:28:32;100073.43;;;14.70;85.96
46682;BME280;34101;53.430;-2.224;2024-02-15T08:30:59;100073.52;;;14.72;85.66
46682;BME280;34101;53.430;-2.224;2024-02-15T08:33:26;100075.47;;;14.77;85.05
46682;BME280;34101;53.430;-2.224;2024-02-15T08:35:56;100068.84;;;14.59;85.87
46682;BME280;34101;53.430;-2.224;2024-02-15T08:38:23;100065.66;;;14.64;86.04
46682;BME280;34101;53.430;-2.224;2024-02-15T08:40:53;100069.58;;;14.68;85.10
46682;BME280;34101;53.430;-2.224;2024-02-15T08:43:21;100068.41;;;14.84;84.77
46682;BME280;34101;53.430;-2.224;2024-02-15T08:45:52;100068.82;;;14.89;84.78
46682;BME280;34101;53.430;-2.224;2024-02-15T08:48:20;100066.23;;;14.86;85.08
46682;BME280;34101;53.430;-2.224;2024-02-15T08:50:47;100074.57;;;14.92;84.49
46682;BME280;34101;53.430;-2.224;2024-02-15T08:53:15;100067.98;;;15.04;84.39
46682;BME280;34101;53.430;-2.224;2024-02-15T08:55:43;100071.15;;;15.15;83.75
46682;BME280;34101;53.430;-2.224;2024-02-15T08:58:18;100069.61;;;15.19;83.87
46682;BME280;34101;53.430;-2.224;2024-02-15T09:00:45;100067.82;;;15.24;83.64
46682;BME280;34101;53.430;-2.224;2024-02-15T09:03:13;100069.16;;;15.20;83.53
46682;BME280;34101;53.430;-2.224;2024-02-15T09:05:41;100064.19;;;15.07;83.88
46682;BME280;34101;53.430;-2.224;2024-02-15T09:08:08;100066.22;;;15.16;83.59
46682;BME280;34101;53.430;-2.224;2024-02-15T09:10:35;100065.46;;;15.15;83.56
46682;BME280;34101;53.430;-2.224;2024-02-15T09:13:03;100062.34;;;15.21;83.16
46682;BME280;34101;53.430;-2.224;2024-02-15T09:15:31;100057.44;;;15.22;83.34
46682;BME280;34101;53.430;-2.224;2024-02-15T09:17:58;100062.39;;;15.30;83.30
46682;BME280;34101;53.430;-2.224;2024-02-15T09:20:26;100059.84;;;15.01;84.27
46682;BME280;34101;53.430;-2.224;2024-02-15T09:22:55;100050.69;;;15.21;83.65
46682;BME280;34101;53.430;-2.224;2024-02-15T09:25:23;100047.70;;;15.28;83.27
46682;BME280;34101;53.430;-2.224;2024-02-15T09:27:51;100055.79;;;15.25;83.69
46682;BME280;34101;53.430;-2.224;2024-02-15T09:30:19;100052.52;;;15.23;83.04
46682;BME280;34101;53.430;-2.224;2024-02-15T09:32:46;100052.56;;;14.98;84.76
46682;BME280;34101;53.430;-2.224;2024-02-15T09:35:14;100047.23;;;15.09;83.66
46682;BME280;34101;53.430;-2.224;2024-02-15T09:37:45;100042.02;;;15.25;83.99
46682;BME280;34101;53.430;-2.224;2024-02-15T09:40:13;100038.13;;;15.21;83.68
46682;BME280;34101;53.430;-2.224;2024-02-15T09:42:40;100020.08;;;15.29;83.61
46682;BME280;34101;53.430;-2.224;2024-02-15T09:45:09;100022.75;;;15.37;83.48
46682;BME280;34101;53.430;-2.224;2024-02-15T09:47:39;100021.13;;;15.36;83.38
46682;BME280;34101;53.430;-2.224;2024-02-15T09:50:08;100015.06;;;15.27;83.34
46682;BME280;34101;53.430;-2.224;2024-02-15T09:52:37;100021.31;;;15.38;83.57
46682;BME280;34101;53.430;-2.224;2024-02-15T09:55:07;100019.96;;;15.33;83.47
46682;BME280;34101;53.430;-2.224;2024-02-15T09:57:34;100018.13;;;15.44;83.53
46682;BME280;34101;53.430;-2.224;2024-02-15T10:00:02;100018.03;;;15.47;83.35
46682;BME280;34101;53.430;-2.224;2024-02-15T10:02:31;100009.03;;;15.52;82.77
46682;BME280;34101;53.430;-2.224;2024-02-15T10:04:58;100013.42;;;15.56;82.93
46682;BME280;34101;53.430;-2.224;2024-02-15T10:07:26;100011.43;;;15.58;82.94
46682;BME280;34101;53.430;-2.224;2024-02-15T10:09:54;100006.42;;;15.60;82.94
46682;BME280;34101;53.430;-2.224;2024-02-15T10:12:23;100012.87;;;15.68;82.57
46682;BME280;34101;53.430;-2.224;2024-02-15T10:15:04;100017.89;;;15.76;82.40
46682;BME280;34101;53.430;-2.224;2024-02-15T10:17:32;100010.47;;;15.64;82.62
46682;BME280;34101;53.430;-2.224;2024-02-15T10:20:04;100012.18;;;15.62;82.88
46682;BME280;34101;53.430;-2.224;2024-02-15T10:22:32;100009.19;;;15.73;82.34
46682;BME280;34101;53.430;-2.224;2024-02-15T10:25:15;100008.37;;;15.73;82.04
46682;BME280;34101;53.430;-2.224;2024-02-15T10:27:43;100014.90;;;15.68;81.83
46682;BME280;34101;53.430;-2.224;2024-02-15T10:30:15;100010.71;;;15.58;82.40
46682;BME280;34101;53.430;-2.224;2024-02-15T10:32:43;100014.29;;;15.75;82.57
46682;BME280;34101;53.430;-2.224;2024-02-15T10:35:11;100008.48;;;16.05;81.33
46682;BME280;34101;53.430;-2.224;2024-02-15T10:37:47;100011.47;;;16.07;81.39
46682;BME280;34101;53.430;-2.224;2024-02-15T10:40:18;100018.68;;;16.21;81.14
46682;BME280;34101;53.430;-2.224;2024-02-15T10:42:47;100020.60;;;16.31;80.42
46682;BME280;34101;53.430;-2.224;2024-02-15T10:45:16;100013.05;;;16.19;80.19
46682;BME280;34101;53.430;-2.224;2024-02-15T10:47:44;100007.68;;;16.20;80.17
46682;BME280;34101;53.430;-2.224;2024-02-15T10:50:12;100011.85;;;16.30;80.00
46682;BME280;34101;53.430;-2.224;2024-02-15T10:52:48;99998.56;;;16.22;79.73
46682;BME280;34101;53.430;-2.224;2024-02-15T10:55:31;100003.49;;;16.34;80.50
46682;BME280;34101;53.430;-2.224;2024-02-15T10:58:06;99998.82;;;16.56;78.96
46682;BME280;34101;53.430;-2.224;2024-02-15T11:00:34;99999.77;;;16.55;78.50
46682;BME280;34101;53.430;-2.224;2024-02-15T11:03:03;99998.10;;;16.30;79.35
46682;BME280;34101;53.430;-2.224;2024-02-15T11:05:33;99998.23;;;16.46;79.42
46682;BME280;34101;53.430;-2.224;2024-02-15T11:08:01;99989.59;;;16.46;79.74
46682;BME280;34101;53.430;-2.224;2024-02-15T11:10:29;99990.45;;;16.70;78.66
46682;BME280;34101;53.430;-2.224;2024-02-15T11:12:57;99990.02;;;16.63;78.43
46682;BME280;34101;53.430;-2.224;2024-02-15T11:15:56;99998.15;;;16.77;77.85
46682;BME280;34101;53.430;-2.224;2024-02-15T11:18:43;99999.43;;;16.77;77.57
46682;BME280;34101;53.430;-2.224;2024-02-15T11:21:10;99995.57;;;16.75;78.33
46682;BME280;34101;53.430;-2.224;2024-02-15T11:23:38;99997.34;;;16.54;78.59
46682;BME280;34101;53.430;-2.224;2024-02-15T11:26:09;99984.81;;;16.59;78.20
46682;BME280;34101;53.430;-2.224;2024-02-15T11:28:38;99988.42;;;16.62;78.32
46682;BME280;34101;53.430;-2.224;2024-02-15T11:31:08;99980.58;;;16.34;78.18
46682;BME280;34101;53.430;-2.224;2024-02-15T11:33:36;99982.88;;;16.53;78.11
46682;BME280;34101;53.430;-2.224;2024-02-15T11:36:05;99974.63;;;16.32;79.16
46682;BME280;34101;53.430;-2.224;2024-02-15T11:38:33;99976.07;;;16.21;79.63
46682;BME280;34101;53.430;-2.224;2024-02-15T11:41:03;99968.19;;;16.11;80.20
46682;BME280;34101;53.430;-2.224;2024-02-15T11:43:48;99964.87;;;16.21;79.69
46682;BME280;34101;53.430;-2.224;2024-02-15T11:46:17;99955.50;;;16.56;77.87
46682;BME280;34101;53.430;-2.224;2024-02-15T11:48:45;99950.84;;;16.43;77.89
46682;BME280;34101;53.430;-2.224;2024-02-15T11:51:27;99948.45;;;16.51;78.29
46682;BME280;34101;53.430;-2.224;2024-02-15T11:54:13;99941.71;;;16.47;77.83
46682;BME280;34101;53.430;-2.224;2024-02-15T11:56:52;99946.55;;;16.67;77.52
46682;BME280;34101;53.430;-2.224;2024-02-15T11:59:20;99948.74;;;16.64;77.35
46682;BME280;34101;53.430;-2.224;2024-02-15T12:01:47;99938.29;;;16.48;77.64
46682;BME280;34101;53.430;-2.224;2024-02-15T12:04:14;99940.39;;;16.54;77.21
46682;BME280;34101;53.430;-2.224;2024-02-15T12:06:42;99931.61;;;16.74;76.80
46682;BME280;34101;53.430;-2.224;2024-02-15T12:09:09;99927.88;;;16.69;76.54
46682;BME280;34101;53.430;-2.224;2024-02-15T12:11:38;99936.64;;;16.50;77.18
46682;BME280;34101;53.430;-2.224;2024-02-15T12:14:06;99925.99;;;16.61;76.53
46682;BME280;34101;53.430;-2.224;2024-02-15T12:16:33;99928.84;;;16.56;76.61
46682;BME280;34101;53.430;-2.224;2024-02-15T12:19:02;99942.12;;;16.58;76.34
46682;BME280;34101;53.430;-2.224;2024-02-15T12:21:30;99941.59;;;16.60;75.97
46682;BME280;34101;53.430;-2.224;2024-02-15T12:23:58;99934.63;;;16.67;75.90
46682;BME280;34101;53.430;-2.224;2024-02-15T12:26:26;99931.44;;;16.74;75.51
46682;BME280;34101;53.430;-2.224;2024-02-15T12:28:54;99925.19;;;16.87;74.79
46682;BME280;34101;53.430;-2.224;2024-02-15T12:31:22;99922.30;;;16.99;74.69
46682;BME280;34101;53.430;-2.224;2024-02-15T12:34:01;99919.28;;;16.97;74.52
46682;BME280;34101;53.430;-2.224;2024-02-15T12:36:28;99912.00;;;17.05;73.94
46682;BME280;34101;53.430;-2.224;2024-02-15T12:39:00;99915.98;;;16.90;74.90
46682;BME280;34101;53.430;-2.224;2024-02-15T12:41:27;99921.55;;;16.83;74.73
46682;BME280;34101;53.430;-2.224;2024-02-15T12:43:55;99919.15;;;16.74;75.56
46682;BME280;34101;53.430;-2.224;2024-02-15T12:46:23;99923.19;;;17.02;73.79